Time;durP1;ratioP1;P1;durP2;ratioP2;P2;SDS_P1;SDS_P2;PMS_P1;PMS_P2;Temp;Humidity;BMP_temperature;BMP_pressure;BME280_temperature;BME280_humidity;BME280_pressure;Samples;Min_cycle;Max_cycle;Signal;HPM_P1;HPM_P2
2021/07/15 00:01:34;;;;;;;4.57;3.38;;;14.90;99.90;;;;;;5033669;28;20061;-75
2021/07/15 00:04:00;;;;;;;4.85;3.15;;;15.00;99.90;;;;;;5032432;28;20034;-75
2021/07/15 00:06:26;;;;;;;3.50;3.10;;;14.70;99.90;;;;;;5033309;28;20032;-75
2021/07/15 00:08:54;;;;;;;4.60;3.35;;;14.80;99.90;;;;;;5033711;28;20029;-75
2021/07/15 00:11:22;;;;;;;5.18;3.38;;;14.60;99.90;;;;;;5032261;28;20026;-75
2021/07/15 00:13:47;;;;;;;4.63;3.33;;;14.80;99.90;;;;;;5032175;28;20022;-75
2021/07/15 00:16:13;;;;;;;5.70;3.55;;;14.70;99.90;;;;;;5033111;28;20037;-74
2021/07/15 00:18:44;;;;;;;4.47;3.33;;;14.80;99.90;;;;;;5032230;28;20041;-75
2021/07/15 00:21:12;;;;;;;4.72;3.17;;;14.70;99.90;;;;;;5033341;28;20411;-75
2021/07/15 00:23:39;;;;;;;8.15;3.30;;;14.80;99.90;;;;;;5033403;28;20021;-75
2021/07/15 00:26:07;;;;;;;4.00;3.22;;;14.70;99.90;;;;;;5033022;28;20037;-75
2021/07/15 00:28:34;;;;;;;5.32;3.40;;;14.70;99.90;;;;;;5033172;28;20028;-74
2021/07/15 00:30:59;;;;;;;5.05;3.08;;;14.50;99.90;;;;;;5031866;28;20060;-74
2021/07/15 00:33:25;;;;;;;3.38;3.08;;;14.50;99.90;;;;;;5033150;28;20030;-74
2021/07/15 00:35:50;;;;;;;4.80;3.25;;;14.60;99.90;;;;;;5032790;28;20025;-74
2021/07/15 00:38:16;;;;;;;7.22;3.47;;;14.70;99.90;;;;;;5033002;28;20030;-74
2021/07/15 00:40:42;;;;;;;3.28;2.97;;;14.80;99.90;;;;;;5036685;28;20491;-75
2021/07/15 00:43:07;;;;;;;4.18;2.95;;;14.80;99.90;;;;;;5033036;28;20484;-76
2021/07/15 00:45:34;;;;;;;6.93;3.75;;;14.80;99.90;;;;;;5032660;28;20500;-75
2021/07/15 00:48:00;;;;;;;4.05;3.22;;;14.80;99.90;;;;;;5032747;28;20026;-75
2021/07/15 00:50:26;;;;;;;4.22;3.20;;;14.60;99.90;;;;;;5032395;28;20034;-75
2021/07/15 00:52:53;;;;;;;7.25;3.20;;;14.70;99.90;;;;;;5032286;28;20542;-76
2021/07/15 00:55:22;;;;;;;7.85;3.45;;;14.70;99.90;;;;;;5032297;28;20408;-75
2021/07/15 00:57:49;;;;;;;4.93;3.47;;;14.70;99.90;;;;;;5032659;28;20028;-76
2021/07/15 01:00:15;;;;;;;6.80;3.13;;;14.60;99.90;;;;;;5032640;28;20099;-76
2021/07/15 01:02:41;;;;;;;7.00;3.45;;;14.50;99.90;;;;;;5032599;28;20488;-75
2021/07/15 01:05:32;;;;;;;8.00;3.50;;;14.50;99.90;;;;;;5030913;28;20044;-75
2021/07/15 01:07:58;;;;;;;8.93;2.90;;;14.50;99.90;;;;;;5032380;28;20108;-75
2021/07/15 01:10:31;;;;;;;5.75;3.38;;;14.30;99.90;;;;;;5032414;28;20064;-75
2021/07/15 01:13:31;;;;;;;8.02;3.80;;;14.30;99.90;;;;;;5032249;28;20105;-76
2021/07/15 01:16:11;;;;;;;3.78;3.38;;;14.30;99.90;;;;;;5032091;28;20108;-76
2021/07/15 01:18:54;;;;;;;5.88;3.28;;;14.20;99.90;;;;;;5032440;28;20025;-76
2021/07/15 01:21:41;;;;;;;3.65;3.35;;;14.20;99.90;;;;;;5032351;28;20390;-77
2021/07/15 01:24:49;;;;;;;7.32;3.00;;;14.20;99.90;;;;;;5031006;28;20022;-77
2021/07/15 01:27:57;;;;;;;5.05;3.13;;;14.30;99.90;;;;;;5032109;28;20053;-77
2021/07/15 01:30:27;;;;;;;;;;;14.40;99.90;;;;;;5029503;28;20117;-77
2021/07/15 01:33:17;;;;;;;8.05;3.67;;;14.40;99.90;;;;;;5032387;28;20000;-75
2021/07/15 01:35:48;;;;;;;7.95;3.90;;;14.30;99.90;;;;;;5031734;28;20112;-75
2021/07/15 01:38:17;;;;;;;7.90;3.83;;;14.30;99.90;;;;;;5032031;28;20022;-75
2021/07/15 01:41:05;;;;;;;9.38;4.30;;;14.30;99.90;;;;;;5028247;28;20504;-75
2021/07/15 01:43:43;;;;;;;7.50;4.07;;;14.30;99.90;;;;;;5031653;28;20045;-75
2021/07/15 01:46:10;;;;;;;15.50;4.32;;;14.30;99.90;;;;;;5031653;28;20022;-75
2021/07/15 01:48:37;;;;;;;7.60;4.25;;;14.20;99.90;;;;;;5031544;28;20108;-75
2021/07/15 01:51:03;;;;;;;9.98;4.65;;;14.30;99.90;;;;;;5031794;28;20021;-75
2021/07/15 01:53:30;;;;;;;7.30;4.13;;;14.30;99.90;;;;;;5031704;28;20079;-75
2021/07/15 01:55:56;;;;;;;9.55;4.43;;;14.20;99.90;;;;;;5031409;28;20061;-75
2021/07/15 01:58:24;;;;;;;6.72;4.40;;;14.20;99.90;;;;;;5031611;28;20017;-75
2021/07/15 02:00:50;;;;;;;6.13;4.10;;;14.30;99.90;;;;;;5031729;28;20018;-75
2021/07/15 02:03:17;;;;;;;9.75;4.25;;;14.30;99.90;;;;;;5030033;28;20032;-75
2021/07/15 02:05:44;;;;;;;7.85;4.40;;;14.40;99.90;;;;;;5030181;28;20040;-76
2021/07/15 02:08:11;;;;;;;7.53;4.63;;;14.40;99.90;;;;;;5031459;28;20035;-76
2021/07/15 02:10:37;;;;;;;9.10;4.90;;;14.40;99.90;;;;;;5031584;28;20033;-76
2021/07/15 02:13:06;;;;;;;6.25;4.35;;;14.50;99.90;;;;;;5031543;28;20060;-76
2021/07/15 02:15:33;;;;;;;7.43;4.97;;;14.50;99.90;;;;;;5030043;28;20029;-75
2021/07/15 02:18:00;;;;;;;6.25;4.78;;;14.40;99.90;;;;;;5030078;28;20038;-75
2021/07/15 02:20:26;;;;;;;7.30;4.45;;;14.30;99.90;;;;;;5031500;28;20426;-75
2021/07/15 02:22:53;;;;;;;12.10;4.95;;;14.20;99.90;;;;;;5031377;28;20030;-74
2021/07/15 02:25:20;;;;;;;9.15;5.32;;;14.30;99.90;;;;;;5031306;28;20439;-74
2021/07/15 02:27:47;;;;;;;6.63;4.80;;;14.20;99.90;;;;;;5031301;28;20033;-76
2021/07/15 02:30:15;;;;;;;9.45;5.63;;;14.20;99.90;;;;;;5030232;28;20025;-76
2021/07/15 02:32:56;;;;;;;8.60;4.95;;;14.20;99.90;;;;;;5029905;28;20030;-74
2021/07/15 02:35:25;;;;;;;7.53;5.00;;;14.30;99.90;;;;;;5031087;28;20083;-75
2021/07/15 02:37:56;;;;;;;8.75;5.50;;;14.30;99.90;;;;;;5031232;28;20030;-74
2021/07/15 02:40:22;;;;;;;8.10;4.57;;;14.10;99.90;;;;;;5031168;28;20021;-74
2021/07/15 02:42:48;;;;;;;6.00;4.20;;;14.30;99.90;;;;;;5031469;28;20029;-75
2021/07/15 02:45:16;;;;;;;6.15;4.20;;;14.60;99.90;;;;;;5031057;28;20029;-74
2021/07/15 02:47:43;;;;;;;7.15;4.35;;;14.70;99.90;;;;;;5031000;28;20036;-74
2021/07/15 02:50:11;;;;;;;5.75;4.90;;;14.70;99.90;;;;;;5030240;28;20491;-75
2021/07/15 02:52:37;;;;;;;6.90;4.32;;;14.60;99.90;;;;;;5029955;28;20037;-76
2021/07/15 02:55:03;;;;;;;11.43;5.70;;;14.50;99.90;;;;;;5030892;28;20034;-76
2021/07/15 02:57:31;;;;;;;11.88;5.75;;;14.50;99.90;;;;;;5029809;28;20021;-76
2021/07/15 03:00:12;;;;;;;10.32;4.85;;;14.30;99.90;;;;;;5031080;28;20021;-76
2021/07/15 03:03:02;;;;;;;7.75;4.18;;;14.30;99.90;;;;;;5029868;28;20104;-75
2021/07/15 03:05:34;;;;;;;7.00;4.53;;;14.50;99.90;;;;;;5030695;28;20057;-75
2021/07/15 03:08:07;;;;;;;6.35;4.70;;;14.70;99.90;;;;;;5031015;28;20025;-75
2021/07/15 03:10:34;;;;;;;11.05;4.55;;;14.70;99.90;;;;;;5031065;28;20108;-75
2021/07/15 03:13:01;;;;;;;6.75;4.53;;;14.50;99.90;;;;;;5029670;28;20025;-76
2021/07/15 03:15:27;;;;;;;10.30;4.25;;;14.60;99.90;;;;;;5032943;28;20037;-76
2021/07/15 03:17:55;;;;;;;7.75;4.20;;;14.60;99.90;;;;;;5034447;28;20071;-76
2021/07/15 03:20:26;;;;;;;8.18;4.03;;;14.60;99.90;;;;;;5034586;28;20026;-77
2021/07/15 03:22:59;;;;;;;11.13;5.90;;;14.70;99.90;;;;;;5034522;28;20028;-76
2021/07/15 03:25:27;;;;;;;8.38;3.95;;;14.60;99.90;;;;;;5032995;28;20033;-76
2021/07/15 03:27:56;;;;;;;7.72;4.22;;;14.50;99.90;;;;;;5034350;28;20029;-76
2021/07/15 03:30:25;;;;;;;5.10;4.15;;;14.80;99.90;;;;;;5034907;28;20021;-75
2021/07/15 03:32:51;;;;;;;5.38;4.10;;;14.70;99.90;;;;;;5034386;28;20025;-75
2021/07/15 03:35:18;;;;;;;7.78;3.70;;;14.90;99.90;;;;;;5034150;28;20460;-75
2021/07/15 03:37:46;;;;;;;6.82;3.92;;;15.00;99.90;;;;;;5034050;28;20029;-76
2021/07/15 03:40:17;;;;;;;6.97;3.60;;;14.80;99.90;;;;;;5034184;28;20028;-75
2021/07/15 03:42:44;;;;;;;8.70;4.80;;;14.80;99.90;;;;;;5034126;28;20029;-76
2021/07/15 03:45:14;;;;;;;10.38;4.20;;;14.90;99.90;;;;;;5033954;28;20463;-75
2021/07/15 03:47:40;;;;;;;9.05;4.68;;;14.90;99.90;;;;;;5033955;28;20120;-76
2021/07/15 03:50:07;;;;;;;8.55;6.40;;;14.80;99.90;;;;;;5034503;28;20032;-76
2021/07/15 03:52:34;;;;;;;12.55;6.50;;;14.60;99.90;;;;;;5032567;28;20028;-76
2021/07/15 03:55:00;;;;;;;11.50;6.43;;;14.20;99.90;;;;;;5033672;28;20083;-76
2021/07/15 03:57:28;;;;;;;8.70;5.68;;;14.10;99.90;;;;;;5032594;28;20033;-76
2021/07/15 03:59:54;;;;;;;16.95;9.52;;;14.30;99.90;;;;;;5033771;28;20024;-76
2021/07/15 04:02:24;;;;;;;20.25;8.85;;;14.60;99.90;;;;;;5032582;28;20026;-76
2021/07/15 04:04:54;;;;;;;13.45;7.47;;;14.70;99.90;;;;;;5033568;28;20033;-76
2021/07/15 04:07:23;;;;;;;11.30;6.72;;;14.80;99.90;;;;;;5034041;28;20049;-75
2021/07/15 04:09:50;;;;;;;9.90;6.65;;;14.90;99.90;;;;;;5033756;28;20085;-76
2021/07/15 04:12:22;;;;;;;8.23;5.18;;;14.90;99.90;;;;;;5032460;28;20130;-75
2021/07/15 04:14:48;;;;;;;11.07;5.28;;;15.00;99.90;;;;;;5032070;28;20032;-75
2021/07/15 04:17:15;;;;;;;8.77;5.15;;;15.10;99.90;;;;;;5033745;28;20379;-75
2021/07/15 04:19:41;;;;;;;8.20;4.93;;;15.00;99.90;;;;;;5033323;28;20029;-74
2021/07/15 04:22:11;;;;;;;8.60;5.00;;;14.90;99.90;;;;;;5033593;28;20029;-75
2021/07/15 04:24:39;;;;;;;11.65;5.70;;;15.00;99.90;;;;;;5033148;28;20470;-75
2021/07/15 04:27:06;;;;;;;14.20;5.18;;;14.80;99.90;;;;;;5032123;28;20144;-76
2021/07/15 04:29:32;;;;;;;8.30;4.90;;;14.70;99.90;;;;;;5032099;28;20032;-75
2021/07/15 04:32:15;;;;;;;7.60;5.70;;;14.70;99.90;;;;;;5032122;28;20112;-75
2021/07/15 04:34:41;;;;;;;11.98;5.80;;;14.70;99.90;;;;;;5033236;28;20454;-75
2021/07/15 04:37:08;;;;;;;6.40;5.50;;;14.60;99.90;;;;;;5033245;28;20028;-75
2021/07/15 04:39:34;;;;;;;8.48;5.57;;;14.70;99.90;;;;;;5033334;28;20052;-75
2021/07/15 04:42:02;;;;;;;10.27;5.88;;;14.60;99.90;;;;;;5033161;28;20034;-75
2021/07/15 04:44:35;;;;;;;9.18;5.00;;;14.50;99.90;;;;;;5032986;28;20075;-74
2021/07/15 04:47:02;;;;;;;7.35;4.57;;;14.70;99.90;;;;;;5033061;28;20115;-75
2021/07/15 04:49:32;;;;;;;9.32;5.50;;;14.80;99.90;;;;;;5032984;28;20028;-75
2021/07/15 04:52:00;;;;;;;7.65;6.00;;;14.80;99.90;;;;;;5032933;28;20041;-75
2021/07/15 04:54:27;;;;;;;10.02;6.18;;;14.60;99.90;;;;;;5032668;28;20061;-76
2021/07/15 04:56:54;;;;;;;16.55;6.25;;;14.50;99.90;;;;;;5032606;28;20029;-75
2021/07/15 04:59:20;;;;;;;8.85;5.93;;;14.50;99.90;;;;;;5031424;28;20048;-75
2021/07/15 05:01:46;;;;;;;7.10;5.72;;;14.50;99.90;;;;;;5032750;28;20480;-76
2021/07/15 05:04:12;;;;;;;6.47;5.25;;;14.60;99.90;;;;;;5032491;28;20034;-76
2021/07/15 05:06:37;;;;;;;6.75;5.13;;;14.80;99.90;;;;;;5031067;28;20026;-75
2021/07/15 05:09:03;;;;;;;9.30;6.22;;;14.90;99.90;;;;;;5032652;28;20369;-75
2021/07/15 05:11:28;;;;;;;9.18;6.03;;;15.00;99.90;;;;;;5032500;28;20052;-76
2021/07/15 05:13:54;;;;;;;6.20;5.60;;;15.00;99.90;;;;;;5032216;28;20049;-75
2021/07/15 05:16:20;;;;;;;10.73;6.43;;;15.00;99.90;;;;;;5031665;28;20025;-76
2021/07/15 05:18:46;;;;;;;6.95;5.72;;;15.00;99.90;;;;;;5032241;28;20014;-76
2021/07/15 05:21:12;;;;;;;6.82;6.00;;;14.80;99.90;;;;;;5032343;28;20051;-76
2021/07/15 05:23:37;;;;;;;6.93;5.70;;;14.80;99.90;;;;;;5032392;28;20022;-76
2021/07/15 05:26:03;;;;;;;8.35;5.93;;;14.90;99.90;;;;;;5032172;28;20068;-77
2021/07/15 05:28:28;;;;;;;9.68;6.13;;;14.80;99.90;;;;;;5032261;28;20037;-77
2021/07/15 05:30:54;;;;;;;12.43;6.55;;;14.90;99.90;;;;;;5032268;28;20025;-77
2021/07/15 05:33:20;;;;;;;10.40;5.80;;;14.90;99.90;;;;;;5032165;28;20076;-77
2021/07/15 05:35:46;;;;;;;13.27;7.38;;;15.00;99.90;;;;;;5030622;28;20476;-77
2021/07/15 05:38:12;;;;;;;10.82;7.63;;;15.10;99.90;;;;;;5031887;28;20028;-77
2021/07/15 05:40:37;;;;;;;8.50;6.82;;;15.20;99.90;;;;;;5015214;28;20026;-77
2021/07/15 05:43:03;;;;;;;8.52;6.47;;;15.20;99.90;;;;;;5032158;28;20017;-76
2021/07/15 05:45:29;;;;;;;12.40;7.35;;;15.20;99.90;;;;;;5030811;28;20021;-77
2021/07/15 05:47:55;;;;;;;8.30;6.82;;;15.20;99.90;;;;;;5031914;28;20029;-77
2021/07/15 05:50:20;;;;;;;9.30;7.13;;;15.30;99.90;;;;;;5031994;28;20479;-77
2021/07/15 05:52:46;;;;;;;11.13;7.40;;;15.30;99.90;;;;;;5031983;28;20506;-77
2021/07/15 05:55:11;;;;;;;9.45;6.90;;;15.30;99.90;;;;;;5031663;28;20036;-77
2021/07/15 05:57:37;;;;;;;8.88;7.03;;;15.40;99.90;;;;;;5031768;28;20173;-76
2021/07/15 06:00:09;;;;;;;9.65;7.18;;;15.50;99.90;;;;;;5031816;28;20025;-77
2021/07/15 06:02:35;;;;;;;8.02;6.35;;;15.70;99.90;;;;;;5030584;28;20029;-76
2021/07/15 06:05:00;;;;;;;8.93;7.28;;;15.80;99.90;;;;;;5030254;28;20115;-77
2021/07/15 06:07:27;;;;;;;11.60;7.15;;;16.00;99.90;;;;;;5031736;28;20071;-77
2021/07/15 06:09:53;;;;;;;10.93;7.32;;;16.10;99.90;;;;;;5031837;28;20113;-77
2021/07/15 06:12:18;;;;;;;10.20;7.35;;;16.20;99.90;;;;;;5031712;28;20033;-77
2021/07/15 06:14:44;;;;;;;11.57;7.40;;;16.30;99.90;;;;;;5030063;28;20083;-75
2021/07/15 06:17:10;;;;;;;10.65;7.05;;;16.30;99.90;;;;;;5031638;28;20029;-77
2021/07/15 06:19:35;;;;;;;8.23;6.53;;;16.20;99.90;;;;;;5030417;28;20377;-77
2021/07/15 06:22:01;;;;;;;12.75;6.15;;;16.30;99.90;;;;;;5031430;28;20075;-77
2021/07/15 06:24:26;;;;;;;7.07;6.35;;;16.50;99.90;;;;;;5031051;28;20033;-77
2021/07/15 06:26:52;;;;;;;9.98;6.68;;;16.40;99.90;;;;;;5031458;28;20086;-77
2021/07/15 06:29:18;;;;;;;7.72;6.25;;;16.30;99.90;;;;;;5031562;28;20026;-77
2021/07/15 06:31:43;;;;;;;7.82;6.82;;;16.60;99.90;;;;;;5031614;28;20034;-77
2021/07/15 06:34:10;;;;;;;8.57;6.80;;;16.50;99.90;;;;;;5031679;28;20108;-77
2021/07/15 06:36:35;;;;;;;8.13;6.97;;;16.50;99.90;;;;;;5029961;28;20022;-77
2021/07/15 06:39:01;;;;;;;10.43;7.72;;;16.50;99.90;;;;;;5031438;28;20021;-77
2021/07/15 06:41:26;;;;;;;8.60;6.32;;;16.40;99.90;;;;;;5031419;28;20079;-77
2021/07/15 06:43:52;;;;;;;7.90;6.70;;;16.50;99.90;;;;;;5031470;28;20049;-77
2021/07/15 06:46:20;;;;;;;9.73;6.80;;;16.60;99.90;;;;;;5031209;28;20034;-77
2021/07/15 06:48:45;;;;;;;6.40;5.80;;;16.70;99.90;;;;;;5030172;28;20037;-77
2021/07/15 06:51:12;;;;;;;8.18;5.80;;;16.80;99.90;;;;;;5034986;28;20026;-77
2021/07/15 06:53:37;;;;;;;7.00;6.35;;;17.10;99.90;;;;;;5035503;28;20044;-77
2021/07/15 06:56:03;;;;;;;8.82;6.18;;;17.30;99.90;;;;;;5034136;28;20029;-75
2021/07/15 06:58:28;;;;;;;8.13;5.90;;;17.00;99.90;;;;;;5033735;28;20071;-76
2021/07/15 07:00:56;;;;;;;6.25;5.65;;;16.90;99.90;;;;;;5035061;28;20029;-73
2021/07/15 07:03:22;;;;;;;7.10;6.40;;;16.90;99.90;;;;;;5034872;28;20018;-76
2021/07/15 07:05:49;;;;;;;7.22;6.10;;;16.80;99.90;;;;;;5034860;28;20091;-76
2021/07/15 07:08:15;;;;;;;6.60;6.00;;;16.80;99.90;;;;;;5034869;28;20037;-77
2021/07/15 07:10:40;;;;;;;6.70;6.00;;;17.00;99.90;;;;;;5033600;28;20387;-76
2021/07/15 07:13:06;;;;;;;6.97;5.60;;;17.10;99.90;;;;;;5034911;28;20110;-77
2021/07/15 07:15:32;;;;;;;6.32;5.72;;;17.40;99.90;;;;;;5034722;28;20074;-76
2021/07/15 07:17:57;;;;;;;7.72;6.70;;;17.30;99.90;;;;;;5034750;28;20109;-77
2021/07/15 07:20:23;;;;;;;9.30;7.13;;;17.10;99.90;;;;;;5034813;28;20076;-77
2021/07/15 07:22:49;;;;;;;7.63;6.70;;;16.90;99.90;;;;;;5034664;28;20143;-77
2021/07/15 07:25:15;;;;;;;7.38;6.60;;;17.10;99.90;;;;;;5033153;28;20231;-76
2021/07/15 07:27:42;;;;;;;11.45;6.03;;;16.90;99.90;;;;;;5034520;28;20473;-77
2021/07/15 07:30:09;;;;;;;6.57;5.97;;;17.00;99.90;;;;;;5034493;28;20034;-77
2021/07/15 07:32:35;;;;;;;5.90;5.38;;;16.90;99.90;;;;;;5033503;28;20040;-77
2021/07/15 07:35:01;;;;;;;5.40;4.72;;;16.90;99.90;;;;;;5033018;28;20022;-76
2021/07/15 07:37:28;;;;;;;6.70;4.50;;;16.80;99.90;;;;;;5034271;28;20541;-76
2021/07/15 07:39:54;;;;;;;4.43;4.03;;;16.80;99.90;;;;;;5034441;28;20032;-77
2021/07/15 07:42:20;;;;;;;6.25;3.72;;;16.70;99.90;;;;;;5033073;28;20054;-77
2021/07/15 07:44:45;;;;;;;4.57;3.97;;;16.70;99.90;;;;;;5034366;28;20108;-77
2021/07/15 07:47:11;;;;;;;4.13;3.42;;;16.90;99.90;;;;;;5034170;28;20029;-76
2021/07/15 07:49:37;;;;;;;4.13;3.67;;;16.90;99.90;;;;;;5034258;28;20022;-77
2021/07/15 07:52:03;;;;;;;4.88;3.20;;;16.90;99.90;;;;;;5034156;28;20487;-77
2021/07/15 07:54:29;;;;;;;5.47;3.20;;;17.00;99.90;;;;;;5033828;28;20107;-76
2021/07/15 07:56:54;;;;;;;3.58;3.10;;;17.20;99.90;;;;;;5033959;28;20022;-77
2021/07/15 07:59:20;;;;;;;3.67;2.95;;;17.30;99.90;;;;;;5033251;28;20048;-76
2021/07/15 08:01:46;;;;;;;4.05;3.30;;;17.50;99.90;;;;;;5033346;28;20480;-76
2021/07/15 08:04:12;;;;;;;3.13;2.92;;;17.60;99.90;;;;;;5033770;28;20030;-77
2021/07/15 08:06:41;;;;;;;3.38;2.90;;;17.50;99.90;;;;;;5033645;28;20025;-76
2021/07/15 08:09:08;;;;;;;2.83;2.60;;;17.60;99.90;;;;;;5043244;28;20022;-75
2021/07/15 08:11:34;;;;;;;2.75;2.30;;;17.60;99.90;;;;;;5032397;28;20021;-76
2021/07/15 08:14:00;;;;;;;2.92;2.70;;;17.60;99.90;;;;;;5033634;28;20018;-76
2021/07/15 08:16:25;;;;;;;3.65;2.40;;;17.70;99.90;;;;;;5037810;28;20107;-76
2021/07/15 08:18:51;;;;;;;3.17;2.40;;;17.70;99.90;;;;;;5038224;28;20422;-76
2021/07/15 08:21:20;;;;;;;2.42;2.05;;;17.70;99.90;;;;;;5046489;28;20163;-77
2021/07/15 08:23:47;;;;;;;1.90;1.80;;;17.70;99.90;;;;;;5035095;28;20048;-76
2021/07/15 08:26:13;;;;;;;2.53;2.33;;;18.00;99.90;;;;;;5036699;28;20519;-75
2021/07/15 08:28:39;;;;;;;3.80;2.13;;;17.90;99.90;;;;;;5033312;28;20392;-76
2021/07/15 08:31:05;;;;;;;2.47;2.25;;;18.10;99.90;;;;;;5043041;28;20421;-75
2021/07/15 08:33:30;;;;;;;3.28;2.03;;;18.10;99.90;;;;;;5037539;28;20482;-78
2021/07/15 08:35:56;;;;;;;1.95;1.85;;;18.10;99.90;;;;;;5033947;28;20026;-76
2021/07/15 08:38:22;;;;;;;2.17;1.55;;;18.50;99.90;;;;;;5032904;28;20045;-76
2021/07/15 08:40:49;;;;;;;1.90;1.70;;;18.80;99.90;;;;;;5043758;28;20021;-76
2021/07/15 08:43:15;;;;;;;2.22;1.63;;;18.70;99.90;;;;;;5034832;28;20064;-76
2021/07/15 08:45:41;;;;;;;2.70;1.35;;;19.00;99.90;;;;;;5035583;28;20033;-76
2021/07/15 08:48:07;;;;;;;1.75;1.50;;;19.30;99.90;;;;;;5041173;28;20599;-76
2021/07/15 08:50:34;;;;;;;2.30;1.40;;;19.40;99.90;;;;;;5032816;28;20105;-76
2021/07/15 08:53:00;;;;;;;5.05;1.70;;;19.60;99.90;;;;;;5032813;28;20060;-77
2021/07/15 08:56:36;;;;;;;1.90;1.70;;;19.90;99.90;;;;;;5032435;28;20025;-77
2021/07/15 08:58:23;;;;;;;1.50;1.40;;;19.70;99.90;;;;;;5040011;28;20365;-76
2021/07/15 09:00:49;;;;;;;2.00;1.30;;;19.40;99.90;;;;;;5032696;28;20092;-77
2021/07/15 09:03:15;;;;;;;2.58;1.58;;;19.80;99.90;;;;;;5032517;28;20037;-77
2021/07/15 09:05:42;;;;;;;2.08;1.55;;;20.10;99.90;;;;;;5032487;28;20038;-76
2021/07/15 09:08:08;;;;;;;4.57;1.60;;;20.30;99.90;;;;;;5031082;28;20448;-77
2021/07/15 09:10:34;;;;;;;2.72;1.50;;;20.20;99.90;;;;;;5032861;28;20057;-78
2021/07/15 09:13:01;;;;;;;2.58;1.60;;;20.30;99.90;;;;;;5030901;28;20099;-77
2021/07/15 09:15:27;;;;;;;1.88;1.65;;;19.60;99.90;;;;;;5032181;28;20614;-77
2021/07/15 09:17:52;;;;;;;3.58;2.65;;;19.20;99.90;;;;;;5032243;28;20045;-76
2021/07/15 09:20:21;;;;;;;2.20;1.50;;;19.10;99.90;;;;;;5032380;28;20051;-77
2021/07/15 09:22:59;;;;;;;1.63;1.50;;;18.90;99.90;;;;;;5032215;28;20021;-76
2021/07/15 09:25:25;;;;;;;5.75;1.40;;;19.30;99.90;;;;;;5023264;28;20036;-77
2021/07/15 09:27:51;;;;;;;1.30;1.20;;;19.80;99.90;;;;;;5032030;28;20028;-77
2021/07/15 09:30:17;;;;;;;3.60;1.40;;;20.10;99.90;;;;;;5036259;28;20398;-75
2021/07/15 09:33:02;;;;;;;3.05;1.20;;;20.30;99.90;;;;;;5035070;28;20037;-76
2021/07/15 09:35:33;;;;;;;1.85;1.10;;;20.10;99.90;;;;;;5029686;28;20029;-76
2021/07/15 09:38:09;;;;;;;1.75;1.08;;;20.30;99.90;;;;;;5029921;28;20105;-76
2021/07/15 09:40:56;;;;;;;1.40;1.10;;;20.10;99.90;;;;;;5038729;28;20021;-76
2021/07/15 09:43:27;;;;;;;0.93;0.90;;;20.30;99.90;;;;;;5012633;28;20025;-76
2021/07/15 09:45:55;;;;;;;1.13;1.00;;;20.40;99.90;;;;;;5030852;28;20161;-76
2021/07/15 09:48:29;;;;;;;3.15;1.20;;;20.60;99.90;;;;;;5031973;28;20025;-76
2021/07/15 09:50:57;;;;;;;2.00;0.90;;;20.70;99.90;;;;;;5029461;28;20037;-76
2021/07/15 09:53:28;;;;;;;3.03;0.85;;;21.00;99.90;;;;;;5042500;28;20032;-76
2021/07/15 09:56:20;;;;;;;1.35;0.90;;;21.10;99.90;;;;;;5031954;28;20045;-76
2021/07/15 09:58:46;;;;;;;1.30;0.80;;;21.50;99.90;;;;;;5030550;28;20083;-76
2021/07/15 10:01:15;;;;;;;0.80;0.80;;;21.50;99.90;;;;;;5031849;28;20081;-74
2021/07/15 10:03:46;;;;;;;0.70;0.70;;;20.80;99.90;;;;;;5031704;28;20037;-76
2021/07/15 10:06:13;;;;;;;1.67;0.70;;;20.80;99.90;;;;;;5031668;28;20036;-76
2021/07/15 10:08:44;;;;;;;2.25;0.77;;;21.00;99.90;;;;;;5030384;28;20025;-76
2021/07/15 10:11:13;;;;;;;0.90;0.70;;;21.40;99.90;;;;;;5030522;28;20103;-76
2021/07/15 10:13:39;;;;;;;1.88;0.88;;;21.90;99.90;;;;;;5030347;28;20026;-77
2021/07/15 10:16:08;;;;;;;1.17;0.95;;;21.20;99.90;;;;;;5031504;28;20502;-76
2021/07/15 10:18:39;;;;;;;1.88;0.90;;;20.40;99.90;;;;;;5030265;28;20539;-76
2021/07/15 10:21:06;;;;;;;0.70;0.70;;;20.60;99.90;;;;;;5030420;28;20018;-77
2021/07/15 10:23:44;;;;;;;1.95;1.30;;;21.10;99.90;;;;;;5031475;28;20140;-77
2021/07/15 10:26:11;;;;;;;1.15;1.05;;;20.70;99.90;;;;;;5035620;28;20028;-76
2021/07/15 10:28:38;;;;;;;0.90;0.90;;;20.60;99.90;;;;;;5035480;28;20049;-77
2021/07/15 10:31:05;;;;;;;1.58;1.00;;;20.80;99.90;;;;;;5035946;28;20034;-76
2021/07/15 10:33:32;;;;;;;1.40;0.95;;;20.90;99.90;;;;;;5034298;28;20108;-76
2021/07/15 10:35:59;;;;;;;1.00;0.80;;;21.30;99.90;;;;;;5034030;28;20052;-76
2021/07/15 10:38:28;;;;;;;1.58;0.90;;;21.70;99.90;;;;;;5034106;28;20510;-76
2021/07/15 10:40:55;;;;;;;1.83;0.93;;;22.00;99.90;;;;;;5034131;28;20121;-76
2021/07/15 10:43:21;;;;;;;1.48;1.20;;;22.10;99.90;;;;;;5034125;28;20474;-76
2021/07/15 10:45:47;;;;;;;0.70;0.70;;;21.80;99.90;;;;;;5035003;28;20105;-76
2021/07/15 10:48:15;;;;;;;0.90;0.60;;;21.50;99.90;;;;;;5035339;28;20112;-76
2021/07/15 10:50:43;;;;;;;1.00;0.80;;;21.40;99.90;;;;;;5033669;28;20021;-77
2021/07/15 10:53:09;;;;;;;1.67;0.70;;;21.00;99.90;;;;;;5035199;28;20504;-75
2021/07/15 10:55:35;;;;;;;1.17;0.77;;;22.20;99.90;;;;;;5034884;28;20036;-76
2021/07/15 10:58:01;;;;;;;1.60;0.50;;;22.40;99.90;;;;;;5035093;28;20036;-76
2021/07/15 11:00:28;;;;;;;1.42;0.50;;;22.30;99.90;;;;;;5035156;28;20388;-76
2021/07/15 11:03:27;;;;;;;0.95;0.55;;;22.30;99.90;;;;;;5033556;28;20029;-76
2021/07/15 11:05:55;;;;;;;0.88;0.60;;;21.70;99.90;;;;;;5033558;28;20034;-76
2021/07/15 11:08:49;;;;;;;0.50;0.50;;;21.60;99.90;;;;;;5036392;28;20021;-76
2021/07/15 11:11:15;;;;;;;1.38;0.40;;;22.70;99.90;;;;;;5042553;28;20025;-76
2021/07/15 11:13:42;;;;;;;0.52;0.50;;;23.00;99.90;;;;;;5034827;28;20025;-76
2021/07/15 11:16:08;;;;;;;0.80;0.50;;;22.60;99.90;;;;;;5034632;28;20071;-76
2021/07/15 11:21:26;;;;;;;2.47;0.68;;;22.60;99.90;;;;;;5034943;28;20021;-76
2021/07/15 11:24:05;;;;;;;2.05;0.65;;;22.00;99.90;;;;;;5034606;28;20018;-76
2021/07/15 11:26:33;;;;;;;0.50;0.50;;;22.20;99.90;;;;;;5033385;28;20026;-76
2021/07/15 11:28:59;;;;;;;0.63;0.60;;;22.50;99.90;;;;;;5026844;28;20048;-77
2021/07/15 11:31:47;;;;;;;0.93;0.50;;;22.60;99.90;;;;;;5038205;28;20033;-77
2021/07/15 11:34:40;;;;;;;0.55;0.40;;;22.50;99.90;;;;;;5037975;28;20087;-76
2021/07/15 11:37:25;;;;;;;1.27;0.40;;;22.70;99.90;;;;;;5034169;28;20074;-76
2021/07/15 11:39:50;;;;;;;1.98;0.82;;;22.80;99.90;;;;;;5027364;28;20484;-75
2021/07/15 11:42:27;;;;;;;2.63;0.80;;;23.30;99.90;;;;;;5036269;28;20136;-75
2021/07/15 11:45:09;;;;;;;1.70;0.45;;;23.80;99.90;;;;;;5034158;28;20022;-76
2021/07/15 11:47:54;;;;;;;0.30;0.30;;;23.90;99.90;;;;;;5034187;28;20498;-74
2021/07/15 11:50:39;;;;;;;1.30;0.60;;;23.20;99.90;;;;;;5034098;28;20080;-74
2021/07/15 11:53:21;;;;;;;1.08;0.50;;;23.30;99.90;;;;;;5034222;28;20025;-76
2021/07/15 11:55:47;;;;;;;1.75;0.70;;;24.00;99.90;;;;;;5028542;28;20061;-76
2021/07/15 11:58:45;;;;;;;1.55;0.50;;;24.40;99.90;;;;;;5041963;28;20017;-76
2021/07/15 12:01:16;;;;;;;1.23;0.88;;;24.00;99.90;;;;;;5046914;28;20049;-75
2021/07/15 12:04:00;;;;;;;1.25;1.00;;;23.10;99.90;;;;;;5037048;28;20017;-76
2021/07/15 12:06:26;;;;;;;0.55;0.50;;;23.00;99.90;;;;;;5030811;28;20017;-76
2021/07/15 12:08:52;;;;;;;1.40;1.20;;;22.70;99.90;;;;;;5033841;28;20554;-76
2021/07/15 12:11:19;;;;;;;2.13;1.92;;;23.30;99.90;;;;;;5033801;28;20029;-76
2021/07/15 12:13:50;;;;;;;0.82;0.82;;;23.80;99.90;;;;;;5032427;28;20253;-76
2021/07/15 12:16:20;;;;;;;0.68;0.60;;;24.50;99.90;;;;;;5037402;28;20426;-76
2021/07/15 12:18:46;;;;;;;0.50;0.50;;;24.00;99.90;;;;;;5039983;28;20434;-76
2021/07/15 12:21:12;;;;;;;1.25;0.60;;;24.60;99.90;;;;;;5033547;28;20591;-76
2021/07/15 12:23:40;;;;;;;0.73;0.60;;;25.70;99.90;;;;;;5033567;28;20475;-75
2021/07/15 12:26:07;;;;;;;1.00;0.90;;;26.00;99.90;;;;;;5033165;28;20045;-76
2021/07/15 12:28:33;;;;;;;0.85;0.50;;;25.30;99.90;;;;;;5033377;28;20029;-75
2021/07/15 12:31:06;;;;;;;1.08;0.73;;;24.70;99.90;;;;;;5033295;28;20025;-76
2021/07/15 12:33:43;;;;;;;0.40;0.40;;;24.70;99.90;;;;;;5033406;28;20033;-76
2021/07/15 12:36:18;;;;;;;0.25;0.25;;;24.50;99.90;;;;;;5031707;28;20483;-75
2021/07/15 12:38:46;;;;;;;1.35;0.30;;;23.80;99.90;;;;;;5033092;28;20032;-76
2021/07/15 12:41:17;;;;;;;0.50;0.30;;;24.00;99.90;;;;;;5018839;28;20057;-76
2021/07/15 12:43:48;;;;;;;0.22;0.22;;;24.10;99.90;;;;;;5032874;28;20144;-76
2021/07/15 12:46:19;;;;;;;1.27;0.30;;;23.80;99.90;;;;;;5032577;28;20029;-76
2021/07/15 12:48:47;;;;;;;0.60;0.38;;;23.90;99.90;;;;;;5030779;28;20048;-76
2021/07/15 12:51:14;;;;;;;0.40;0.40;;;24.00;99.90;;;;;;5032888;28;20068;-76
2021/07/15 12:53:44;;;;;;;1.17;0.40;;;23.50;99.90;;;;;;5032803;28;20492;-76
2021/07/15 12:56:17;;;;;;;1.33;0.47;;;23.10;99.90;;;;;;5032522;28;20547;-76
2021/07/15 12:58:44;;;;;;;0.30;0.30;;;22.80;99.90;;;;;;5032803;28;20021;-77